sensor_id;sensor_type;location;lat;lon;timestamp;pressure;altitude;pressure_sealevel;temperature;humidity
38253;BME280;24785;52.372;20.672;2023-01-19T00:03:57;99382.88;;;0.98;100.00
38253;BME280;24785;52.372;20.672;2023-01-19T00:13:58;99390.53;;;1.00;100.00
38253;BME280;24785;52.372;20.672;2023-01-19T00:23:59;99432.28;;;1.03;100.00
38253;BME280;24785;52.372;20.672;2023-01-19T00:34:01;99449.25;;;1.07;100.00
38253;BME280;24785;52.372;20.672;2023-01-19T00:44:02;99455.88;;;1.09;100.00
38253;BME280;24785;52.372;20.672;2023-01-19T00:54:03;99478.44;;;1.17;100.00
38253;BME280;24785;52.372;20.672;2023-01-19T01:04:04;99463.56;;;1.11;100.00
38253;BME280;24785;52.372;20.672;2023-01-19T01:14:06;99442.94;;;1.08;100.00
38253;BME280;24785;52.372;20.672;2023-01-19T01:24:08;99443.16;;;1.06;100.00
38253;BME280;24785;52.372;20.672;2023-01-19T01:34:09;99433.97;;;1.09;100.00
38253;BME280;24785;52.372;20.672;2023-01-19T01:54:52;99430.13;;;1.00;100.00
38253;BME280;24785;52.372;20.672;2023-01-19T02:04:56;99415.59;;;1.14;100.00
38253;BME280;24785;52.372;20.672;2023-01-19T02:14:59;99418.78;;;0.87;100.00
38253;BME280;24785;52.372;20.672;2023-01-19T02:25:03;99426.03;;;0.80;100.00
38253;BME280;24785;52.372;20.672;2023-01-19T02:35:05;99431.56;;;0.67;100.00
38253;BME280;24785;52.372;20.672;2023-01-19T02:45:07;99433.03;;;0.75;100.00
38253;BME280;24785;52.372;20.672;2023-01-19T02:55:21;99432.56;;;0.78;100.00
38253;BME280;24785;52.372;20.672;2023-01-19T03:15:51;99429.19;;;0.54;100.00
38253;BME280;24785;52.372;20.672;2023-01-19T03:25:57;99422.75;;;0.61;100.00
38253;BME280;24785;52.372;20.672;2023-01-19T03:36:04;99439.34;;;0.74;100.00
38253;BME280;24785;52.372;20.672;2023-01-19T03:46:08;99449.84;;;0.85;100.00
38253;BME280;24785;52.372;20.672;2023-01-19T03:56:16;99458.09;;;0.89;100.00
38253;BME280;24785;52.372;20.672;2023-01-19T04:06:19;99462.34;;;0.90;100.00
38253;BME280;24785;52.372;20.672;2023-01-19T04:16:20;99478.16;;;0.90;100.00
38253;BME280;24785;52.372;20.672;2023-01-19T04:26:22;99493.75;;;0.91;100.00
38253;BME280;24785;52.372;20.672;2023-01-19T04:36:23;99500.63;;;0.92;100.00
38253;BME280;24785;52.372;20.672;2023-01-19T04:46:24;99508.25;;;0.77;100.00
38253;BME280;24785;52.372;20.672;2023-01-19T04:56:25;99515.47;;;0.70;100.00
38253;BME280;24785;52.372;20.672;2023-01-19T05:06:26;99515.03;;;0.61;100.00
38253;BME280;24785;52.372;20.672;2023-01-19T05:16:27;99526.50;;;0.67;100.00
38253;BME280;24785;52.372;20.672;2023-01-19T05:26:27;99520.28;;;0.73;100.00
38253;BME280;24785;52.372;20.672;2023-01-19T05:36:28;99532.09;;;0.71;100.00
38253;BME280;24785;52.372;20.672;2023-01-19T05:46:29;99563.28;;;0.74;100.00
38253;BME280;24785;52.372;20.672;2023-01-19T05:56:30;99549.19;;;0.80;100.00
38253;BME280;24785;52.372;20.672;2023-01-19T06:06:32;99564.06;;;0.86;100.00
38253;BME280;24785;52.372;20.672;2023-01-19T06:16:33;99565.44;;;0.88;100.00
38253;BME280;24785;52.372;20.672;2023-01-19T06:26:34;99613.16;;;0.87;100.00
38253;BME280;24785;52.372;20.672;2023-01-19T06:36:35;99631.38;;;0.88;100.00
38253;BME280;24785;52.372;20.672;2023-01-19T06:46:36;99641.38;;;0.86;100.00
38253;BME280;24785;52.372;20.672;2023-01-19T06:56:37;99650.78;;;0.94;100.00
38253;BME280;24785;52.372;20.672;2023-01-19T07:06:37;99647.47;;;0.99;100.00
38253;BME280;24785;52.372;20.672;2023-01-19T07:16:38;99644.13;;;1.03;100.00
38253;BME280;24785;52.372;20.672;2023-01-19T07:26:39;99632.56;;;1.04;100.00
38253;BME280;24785;52.372;20.672;2023-01-19T07:36:40;99624.41;;;1.06;100.00
38253;BME280;24785;52.372;20.672;2023-01-19T07:46:41;99640.81;;;1.19;100.00
38253;BME280;24785;52.372;20.672;2023-01-19T07:56:42;99671.88;;;1.29;100.00
38253;BME280;24785;52.372;20.672;2023-01-19T08:06:44;99688.16;;;1.38;100.00
38253;BME280;24785;52.372;20.672;2023-01-19T08:16:45;99697.03;;;1.43;100.00
38253;BME280;24785;52.372;20.672;2023-01-19T08:26:47;99690.72;;;1.44;100.00
38253;BME280;24785;52.372;20.672;2023-01-19T08:36:49;99679.34;;;1.44;100.00
38253;BME280;24785;52.372;20.672;2023-01-19T08:46:49;99674.50;;;1.41;100.00
38253;BME280;24785;52.372;20.672;2023-01-19T08:56:50;99679.78;;;1.41;100.00
38253;BME280;24785;52.372;20.672;2023-01-19T09:06:51;99682.44;;;1.52;100.00
38253;BME280;24785;52.372;20.672;2023-01-19T09:16:52;99693.66;;;1.60;100.00
38253;BME280;24785;52.372;20.672;2023-01-19T09:26:53;99717.31;;;1.66;100.00
38253;BME280;24785;52.372;20.672;2023-01-19T09:36:54;99720.75;;;1.67;100.00
38253;BME280;24785;52.372;20.672;2023-01-19T09:46:55;99722.34;;;1.68;100.00
38253;BME280;24785;52.372;20.672;2023-01-19T09:56:56;99721.22;;;1.64;100.00
38253;BME280;24785;52.372;20.672;2023-01-19T10:27:45;99711.19;;;1.77;100.00
38253;BME280;24785;52.372;20.672;2023-01-19T10:37:47;99712.91;;;1.83;100.00
38253;BME280;24785;52.372;20.672;2023-01-19T10:47:48;99716.47;;;1.77;100.00
38253;BME280;24785;52.372;20.672;2023-01-19T10:57:49;99719.22;;;1.82;100.00
38253;BME280;24785;52.372;20.672;2023-01-19T11:07:52;99722.22;;;1.74;100.00
38253;BME280;24785;52.372;20.672;2023-01-19T11:17:53;99728.06;;;1.88;100.00
38253;BME280;24785;52.372;20.672;2023-01-19T11:27:54;99719.91;;;1.89;100.00
38253;BME280;24785;52.372;20.672;2023-01-19T11:48:24;99711.63;;;1.86;100.00
38253;BME280;24785;52.372;20.672;2023-01-19T11:58:26;99701.19;;;1.79;100.00
38253;BME280;24785;52.372;20.672;2023-01-19T12:08:33;99697.53;;;1.80;100.00
38253;BME280;24785;52.372;20.672;2023-01-19T12:18:39;99699.47;;;1.85;100.00
38253;BME280;24785;52.372;20.672;2023-01-19T12:28:45;99695.25;;;1.72;100.00
38253;BME280;24785;52.372;20.672;2023-01-19T12:39:18;99682.47;;;1.81;100.00
38253;BME280;24785;52.372;20.672;2023-01-19T12:59:25;99678.81;;;1.70;100.00
38253;BME280;24785;52.372;20.672;2023-01-19T13:09:37;99681.31;;;1.88;100.00
38253;BME280;24785;52.372;20.672;2023-01-19T13:19:44;99677.44;;;1.79;100.00
38253;BME280;24785;52.372;20.672;2023-01-19T13:29:47;99680.63;;;1.81;100.00
38253;BME280;24785;52.372;20.672;2023-01-19T13:39:51;99680.56;;;1.65;100.00
38253;BME280;24785;52.372;20.672;2023-01-19T13:49:56;99688.34;;;1.71;100.00
38253;BME280;24785;52.372;20.672;2023-01-19T14:10:05;99711.31;;;1.71;100.00
38253;BME280;24785;52.372;20.672;2023-01-19T14:20:28;99702.00;;;1.80;100.00
38253;BME280;24785;52.372;20.672;2023-01-19T14:30:29;99685.16;;;1.69;100.00
38253;BME280;24785;52.372;20.672;2023-01-19T14:40:36;99699.25;;;1.75;100.00
38253;BME280;24785;52.372;20.672;2023-01-19T14:50:39;99712.00;;;1.78;100.00
38253;BME280;24785;52.372;20.672;2023-01-19T15:00:42;99713.97;;;1.71;100.00
38253;BME280;24785;52.372;20.672;2023-01-19T15:10:43;99720.97;;;1.65;100.00
38253;BME280;24785;52.372;20.672;2023-01-19T15:20:45;99733.50;;;1.70;100.00
38253;BME280;24785;52.372;20.672;2023-01-19T15:30:46;99722.34;;;1.68;100.00
38253;BME280;24785;52.372;20.672;2023-01-19T15:40:47;99723.41;;;1.67;100.00
38253;BME280;24785;52.372;20.672;2023-01-19T15:50:48;99730.63;;;1.60;100.00
38253;BME280;24785;52.372;20.672;2023-01-19T16:00:53;99739.56;;;1.82;100.00
38253;BME280;24785;52.372;20.672;2023-01-19T16:10:55;99742.56;;;1.62;100.00
38253;BME280;24785;52.372;20.672;2023-01-19T16:20:55;99749.59;;;1.56;100.00
38253;BME280;24785;52.372;20.672;2023-01-19T16:30:56;99750.06;;;1.53;100.00
38253;BME280;24785;52.372;20.672;2023-01-19T16:40:57;99755.31;;;1.77;100.00
38253;BME280;24785;52.372;20.672;2023-01-19T16:50:59;99754.28;;;1.66;100.00
38253;BME280;24785;52.372;20.672;2023-01-19T17:01:04;99752.91;;;1.64;100.00
38253;BME280;24785;52.372;20.672;2023-01-19T17:11:10;99753.91;;;1.86;100.00
38253;BME280;24785;52.372;20.672;2023-01-19T17:21:11;99745.56;;;1.54;100.00
38253;BME280;24785;52.372;20.672;2023-01-19T17:31:20;99749.34;;;1.58;100.00
38253;BME280;24785;52.372;20.672;2023-01-19T17:51:23;99735.03;;;1.42;100.00
38253;BME280;24785;52.372;20.672;2023-01-19T18:01:27;99744.75;;;1.42;100.00
38253;BME280;24785;52.372;20.672;2023-01-19T18:11:28;99727.31;;;1.41;100.00
38253;BME280;24785;52.372;20.672;2023-01-19T18:21:29;99721.00;;;1.30;100.00
38253;BME280;24785;52.372;20.672;2023-01-19T18:31:31;99718.13;;;1.32;100.00
38253;BME280;24785;52.372;20.672;2023-01-19T18:41:32;99711.94;;;1.38;100.00
38253;BME280;24785;52.372;20.672;2023-01-19T18:51:35;99710.09;;;1.15;100.00
38253;BME280;24785;52.372;20.672;2023-01-19T19:01:36;99718.94;;;1.09;100.00
38253;BME280;24785;52.372;20.672;2023-01-19T19:11:37;99723.41;;;1.08;100.00
38253;BME280;24785;52.372;20.672;2023-01-19T19:21:38;99729.16;;;1.05;100.00
38253;BME280;24785;52.372;20.672;2023-01-19T19:31:39;99734.31;;;1.00;100.00
38253;BME280;24785;52.372;20.672;2023-01-19T19:41:39;99745.09;;;0.99;100.00
38253;BME280;24785;52.372;20.672;2023-01-19T19:51:42;99758.84;;;1.01;100.00
38253;BME280;24785;52.372;20.672;2023-01-19T20:01:43;99766.44;;;1.09;100.00
38253;BME280;24785;52.372;20.672;2023-01-19T20:11:46;99768.50;;;1.07;100.00
38253;BME280;24785;52.372;20.672;2023-01-19T20:21:48;99792.38;;;1.12;100.00
38253;BME280;24785;52.372;20.672;2023-01-19T20:31:52;99800.88;;;1.25;100.00
38253;BME280;24785;52.372;20.672;2023-01-19T20:41:53;99805.09;;;1.15;100.00
38253;BME280;24785;52.372;20.672;2023-01-19T20:51:54;99806.63;;;0.92;100.00
38253;BME280;24785;52.372;20.672;2023-01-19T21:01:55;99796.25;;;0.98;100.00
38253;BME280;24785;52.372;20.672;2023-01-19T21:11:56;99811.28;;;1.09;100.00
38253;BME280;24785;52.372;20.672;2023-01-19T21:21:56;99820.72;;;1.16;100.00
38253;BME280;24785;52.372;20.672;2023-01-19T21:31:57;99832.94;;;0.99;100.00
38253;BME280;24785;52.372;20.672;2023-01-19T21:41:58;99859.09;;;1.01;100.00
38253;BME280;24785;52.372;20.672;2023-01-19T21:51:59;99882.34;;;1.22;100.00
38253;BME280;24785;52.372;20.672;2023-01-19T22:02:00;99887.03;;;1.20;100.00
38253;BME280;24785;52.372;20.672;2023-01-19T22:12:01;99900.34;;;1.13;100.00
38253;BME280;24785;52.372;20.672;2023-01-19T22:22:02;99897.00;;;1.18;100.00
38253;BME280;24785;52.372;20.672;2023-01-19T22:32:03;99903.56;;;1.15;100.00
38253;BME280;24785;52.372;20.672;2023-01-19T22:42:04;99909.66;;;1.27;100.00
38253;BME280;24785;52.372;20.672;2023-01-19T22:52:04;99919.84;;;1.12;100.00
38253;BME280;24785;52.372;20.672;2023-01-19T23:02:05;99932.66;;;1.09;100.00
38253;BME280;24785;52.372;20.672;2023-01-19T23:12:06;99940.44;;;1.04;100.00
38253;BME280;24785;52.372;20.672;2023-01-19T23:22:07;99954.22;;;1.06;100.00
38253;BME280;24785;52.372;20.672;2023-01-19T23:32:07;99964.56;;;0.89;100.00
38253;BME280;24785;52.372;20.672;2023-01-19T23:42:08;99974.84;;;0.97;100.00
38253;BME280;24785;52.372;20.672;2023-01-19T23:52:09;99982.31;;;1.00;100.00
